Aeroporto :
LOGIN :

Iscrizione | Disclaimer

   EN    FR    IT 

 










Sommario :    VFR   VFR Marginale   IFR   IFR Intensivo   IFR Molto Intensivo
Visibilità : 
Base nubi : 
>= 8 km
>= 3000ft
5 / 8 km
1000 / 3000 ft
1500m / 5 km
500 / 1000 ft
800 / 1500m
200 / 500 ft
< 800m
< 200 ft
Simboli :   Temporali  Nebbia  Neve Forte  Precipitazioni Forti  Vento > 20 kt
SIGMETs :   Varie  Temporali  Ghiacco  Turbolenza  Onda orograficha  Ceneri Vulcaniche






- Altitudine del aeroporto : 1959 ft
- Codice IATA : HOQ


EDQM - Hof Plauen

ULTIMO METAR :
  • 290820Z 15006KT 120V190 5000 BR BKN003 02/01 Q1016

METARs OBSOLETI :
  • 290750Z 15005KT 5000 BR SCT003 OVC004 02/01 Q1015
  • 290720Z 16005KT 140V210 5000 BR SCT003 BKN006 01/01 Q1015
  • 290650Z 14004KT 110V170 5000 BR BKN005 01/01 Q1015
  • 290620Z 15004KT 120V180 6000 SCT004 SCT019 BKN023 01/01 Q1015
  • 290550Z 15004KT 110V180 6000 SCT004 BKN022 01/01 Q1015

TAF TAF EDQM
Valido dal 29 a 09 ore il 29 a 18 ore UTC


290800Z 2909/2918 15005KT 5000 BR SCT003 BKN006
BECMG 2909/2911 3500 -RADZ BR BKN003



MetMap, La meteo Aeronautica in un colpo d'occhio ! - Copyright ORBIFLY Dicembre 2007 - Disclaimer

ORBIFLY MET'MAP TEAM :

Programmazione e sviluppo : Alexandra Zaïnal
Concezione : Baudouin d'Aumeries
Supporto tecnico e logistico : Manuel Goepfert
Aiuto : Marc-Olivier Méhu
Aiuto per la traduzione : Arnaldo La Scala




FONTI E CREDITI :

   NOAA